createdAt,value
2022-09-06T00:02:52.590Z,53.49
2022-09-06T00:09:12.559Z,53.23
2022-09-06T00:15:35.626Z,53.28
2022-09-06T00:21:55.572Z,53.14
2022-09-06T00:28:18.557Z,53.55
2022-09-06T00:34:38.553Z,53.2
2022-09-06T00:41:01.578Z,53.02
2022-09-06T00:47:21.560Z,52.82
2022-09-06T00:53:44.575Z,53.79
2022-09-06T01:00:04.561Z,53.03
2022-09-06T01:06:27.557Z,53.93
2022-09-06T01:12:47.579Z,56.07
2022-09-06T01:19:10.557Z,57.85
2022-09-06T01:25:30.567Z,58.48
2022-09-06T01:31:53.557Z,59.33
2022-09-06T01:38:13.572Z,60.48
2022-09-06T01:44:36.589Z,61.19
2022-09-06T01:50:56.570Z,61.43
2022-09-06T01:57:19.570Z,61.74
2022-09-06T02:03:39.548Z,61.88
2022-09-06T02:10:02.565Z,62.94
2022-09-06T02:16:22.639Z,62.85
2022-09-06T02:22:45.558Z,61.19
2022-09-06T02:29:05.568Z,61.88
2022-09-06T02:35:28.582Z,63.49
2022-09-06T02:41:48.565Z,64.06
2022-09-06T02:48:11.561Z,64.97
2022-09-06T02:54:31.579Z,65.57
2022-09-06T03:00:54.611Z,65.45
2022-09-06T03:07:14.550Z,66.01
2022-09-06T03:13:37.570Z,66.47
2022-09-06T03:19:57.570Z,66.59
2022-09-06T03:26:20.556Z,65.79
2022-09-06T03:32:40.576Z,65.6
2022-09-06T03:39:03.559Z,65.87
2022-09-06T03:45:23.573Z,65.82
2022-09-06T03:51:46.557Z,65.86
2022-09-06T03:58:06.565Z,66.2
2022-09-06T04:14:16.555Z,67.57
2022-09-06T04:20:36.622Z,67.99
2022-09-06T04:26:59.563Z,68.32
2022-09-06T04:33:19.586Z,68.63
2022-09-06T04:39:42.606Z,69.19
2022-09-06T04:46:02.639Z,69.05
2022-09-06T04:52:29.548Z,69.1
2022-09-06T04:58:45.561Z,69.94
2022-09-06T05:05:08.581Z,69.48
2022-09-06T05:11:28.554Z,69.69
2022-09-06T05:17:51.581Z,69.28
2022-09-06T05:24:11.560Z,69.58
2022-09-06T05:30:34.583Z,69.79
2022-09-06T05:36:54.563Z,69.91
2022-09-06T05:43:17.569Z,69.78
2022-09-06T05:49:37.593Z,70.3
2022-09-06T05:56:00.558Z,70.48
2022-09-06T06:02:20.651Z,70.18
2022-09-06T06:08:43.563Z,70
2022-09-06T06:15:03.576Z,69.55
2022-09-06T06:21:26.588Z,68.87
2022-09-06T06:27:46.579Z,68.14
2022-09-06T06:34:09.612Z,66.7
2022-09-06T06:40:29.587Z,66.22
2022-09-06T06:46:52.559Z,65.12
2022-09-06T06:53:12.606Z,65.01
2022-09-06T06:59:35.559Z,64.7
2022-09-06T07:06:11.167Z,64.08
2022-09-06T07:12:18.587Z,63.72
2022-09-06T07:18:38.563Z,63.33
2022-09-06T07:25:01.600Z,62.49
2022-09-06T07:37:44.786Z,61.91
2022-09-06T07:44:04.564Z,60.76
2022-09-06T07:56:47.583Z,59.98
2022-09-06T08:03:10.580Z,57.87
2022-09-06T08:09:30.584Z,57.36
2022-09-06T08:15:53.641Z,56.82
2022-09-06T08:22:13.559Z,55.06
2022-09-06T08:28:36.573Z,52.9
2022-09-06T08:34:56.734Z,51.97
2022-09-06T08:41:19.589Z,51.33
2022-09-06T08:47:39.575Z,50.46
2022-09-06T08:54:02.585Z,48.2
2022-09-06T09:00:22.565Z,46.54
2022-09-06T09:06:45.587Z,46.25
2022-09-06T09:13:06.581Z,45.47
2022-09-06T09:19:29.587Z,45.76
2022-09-06T09:25:49.589Z,44.4
2022-09-06T09:32:12.563Z,43.39
2022-09-06T09:38:32.574Z,44.3
2022-09-06T09:54:43.538Z,42.78
2022-09-06T10:01:03.607Z,42.03
2022-09-06T10:07:26.581Z,40.36
2022-09-06T10:13:46.561Z,40.09
2022-09-06T10:20:09.562Z,39.68
2022-09-06T10:26:29.573Z,37.31
2022-09-06T10:32:52.567Z,38.27
2022-09-06T10:39:12.573Z,39.13
2022-09-06T10:45:35.558Z,37.44
2022-09-06T10:51:55.557Z,37.01
2022-09-06T10:58:19.288Z,37.51
2022-09-06T11:11:01.571Z,36.75
2022-09-06T11:17:21.552Z,35.63
2022-09-06T11:23:44.580Z,34.23
2022-09-06T11:30:04.560Z,32.8
2022-09-06T11:36:27.616Z,32.31
2022-09-06T11:42:47.591Z,32.54
2022-09-06T11:49:10.726Z,31.39
2022-09-06T11:55:30.578Z,31.79
2022-09-06T12:01:53.791Z,31.49
2022-09-06T12:08:13.572Z,31.18
2022-09-06T12:14:36.571Z,33.41
2022-09-06T12:20:56.558Z,34.23
2022-09-06T12:27:19.570Z,34.97
2022-09-06T12:33:39.557Z,35.24
2022-09-06T12:40:02.631Z,36.14
2022-09-06T12:46:22.603Z,33.74
2022-09-06T12:52:45.556Z,33.67
2022-09-06T12:59:05.878Z,31.86
2022-09-06T13:05:28.566Z,32.12
2022-09-06T13:11:48.577Z,30.5
2022-09-06T13:18:11.567Z,31.11
2022-09-06T13:24:31.576Z,30.8
2022-09-06T13:30:54.586Z,29.33
2022-09-06T13:37:14.619Z,28.84
2022-09-06T13:43:37.564Z,29.68
2022-09-06T13:49:57.578Z,29.73
2022-09-06T13:56:20.575Z,27.94
2022-09-06T14:02:40.600Z,30.01
2022-09-06T14:09:07.161Z,29.69
2022-09-06T14:15:23.560Z,30.37
2022-09-06T14:21:46.578Z,31.1
2022-09-06T14:28:06.560Z,33.96
2022-09-06T14:34:29.564Z,35.19
2022-09-06T14:40:49.578Z,33.7
2022-09-06T14:47:12.566Z,33.91
2022-09-06T14:53:40.079Z,33.71
2022-09-06T14:59:55.564Z,33.12
2022-09-06T15:06:15.805Z,33.4
2022-09-06T15:12:38.601Z,32.62
2022-09-06T15:18:58.563Z,33.59
2022-09-06T15:25:21.581Z,32.8
2022-09-06T15:41:29.578Z,33.35
2022-09-06T15:47:52.563Z,32.6
2022-09-06T15:54:12.575Z,32.26
2022-09-06T16:00:35.563Z,32.33
2022-09-06T16:06:55.558Z,32.43
2022-09-06T16:13:18.784Z,31.81
2022-09-06T16:19:38.771Z,31.64
2022-09-06T16:26:01.594Z,31.34
2022-09-06T16:32:21.856Z,31.4
2022-09-06T16:38:44.581Z,32.84
2022-09-06T16:45:04.559Z,32.85
2022-09-06T16:51:27.567Z,33.99
2022-09-06T16:57:47.573Z,34.53
2022-09-06T17:04:10.568Z,35.21
2022-09-06T17:10:30.580Z,36
2022-09-06T17:16:53.593Z,36.43
2022-09-06T17:23:15.810Z,37.03
2022-09-06T17:29:36.555Z,37.55
2022-09-06T17:35:56.578Z,38.62
2022-09-06T17:42:19.555Z,37.98
2022-09-06T17:48:39.580Z,39.24
2022-09-06T17:55:02.557Z,40.32
2022-09-06T18:01:22.629Z,40.69
2022-09-06T18:07:45.582Z,40.85
2022-09-06T18:14:05.557Z,41.76
2022-09-06T18:20:28.565Z,42.13
2022-09-06T18:26:48.559Z,43.16
2022-09-06T18:33:11.806Z,43.54
2022-09-06T18:39:31.581Z,44
2022-09-06T18:45:54.617Z,44.47
2022-09-06T18:52:14.578Z,45.19
2022-09-06T18:58:37.551Z,45.91
2022-09-06T19:04:57.570Z,46.56
2022-09-06T19:11:20.562Z,47.35
2022-09-06T19:17:40.768Z,47.85
2022-09-06T19:24:03.833Z,48.26
2022-09-06T19:30:23.566Z,48.81
2022-09-06T19:36:46.560Z,48.97
2022-09-06T19:43:06.557Z,49.62
2022-09-06T19:49:29.706Z,49.44
2022-09-06T19:55:49.554Z,49.24
2022-09-06T20:02:12.719Z,48.54
2022-09-06T20:08:32.558Z,49.17
2022-09-06T20:14:55.556Z,49.86
2022-09-06T20:21:15.597Z,49.88
2022-09-06T20:27:41.351Z,48.65
2022-09-06T20:33:58.582Z,48.22
2022-09-06T20:40:21.551Z,47.47
2022-09-06T20:46:41.626Z,53.1
2022-09-06T20:53:04.603Z,61.91
2022-09-06T20:59:24.552Z,65.01
2022-09-06T21:05:47.599Z,68.39
2022-09-06T21:21:55.575Z,76.05
2022-09-06T21:28:18.558Z,78.55
2022-09-06T21:34:38.582Z,79.43
2022-09-06T21:41:01.559Z,79.38
2022-09-06T21:47:21.559Z,79.42
2022-09-06T21:53:44.581Z,80.88
2022-09-06T22:00:04.562Z,78.6
2022-09-06T22:23:01.557Z,76.1
2022-09-06T22:29:21.578Z,77.15
2022-09-06T22:35:44.573Z,77.08
2022-09-06T22:42:04.552Z,78.3
2022-09-06T22:48:27.697Z,77.87
2022-09-06T22:54:47.549Z,77.12
2022-09-06T23:01:10.711Z,76.65
2022-09-06T23:07:30.560Z,77.21
2022-09-06T23:13:53.578Z,77.66
2022-09-06T23:20:13.585Z,79.2
2022-09-06T23:26:36.601Z,78.45
2022-09-06T23:32:56.571Z,75.09
2022-09-06T23:39:19.560Z,69.71
2022-09-06T23:45:39.555Z,73.58
2022-09-06T23:52:02.556Z,79.73
2022-09-06T23:58:22.555Z,83.93
